Airfield :
LOGIN :

Register | Disclaimer

   EN    FR    IT 

 










Legend :    VFR   Marginal VFR   IFR   Intensive IFR   Very Intensive IFR
Visi :
Ceiling :
>= 8 km
>= 3000ft
5 to 8 km
1000 to 3000 ft
1500m to 5 km
500 to 1000 ft
800 to 1500m
200 to 500 ft
< 800m
< 200 ft
Symbols :   Thunderstorms  Fog  Heavy snow  Heavy precipitations  Wind > 20 kt
SIGMETs :     Misc.  Thunderstorms  Icing  Turbulence  Mountain Waves  Volcanic Ashes







- Airport Elevation : 51 ft
- IATA code : GWT


EDXW - Westerland-Sylt Island

CURRENT METAR :
  • 210820Z 18011KT 9999 FEW008 13/12 Q1010

EXPIRED METARs :
  • 210750Z 16009KT 120V190 7000 BKN006TCU 13/12 Q1010
  • 210720Z 13011KT 5000 BR SCT006 BKN009TCU 12/12 Q1010
  • 210650Z 13010KT 5000 BR FEW003 SCT008 12/12 Q1010
  • 210620Z 14011KT 5000 BR SCT004 SCT009 12/11 Q1010
  • 210550Z 14010KT 6000 FEW004 SCT009 12/12 Q1009

TAF TAF EDXW
Valid from the 21 at 09:00 until the 21 at 18:00 UTC


210800Z 2109/2118 15012KT 6000 BKN015
TEMPO 2109/2112 BKN005
TEMPO 2112/2118 18015G25KT RA BKN012
No reported NOTAMs for that airfield.



MET'MAP, your aeronautical weather chart ! - Copyright ORBIFLY December 2007 - Disclaimer

ORBIFLY MET'MAP TEAM :

Programming & Development : Alexandra Zaïnal
Concept & Development : Baudouin d'Aumeries
Co-Development & Prog : Marc-Olivier Méhu
Technical & hardware support : Manuel Goepfert

Contact : metmap@orbifly.com




SOURCES & CREDITS :

   NOAA